TimePST,TemperatureF,Dew PointF,Humidity,Sea Level PressureIn,VisibilityMPH,Wind Direction,Wind SpeedMPH,Gust SpeedMPH,PrecipitationIn,Events,Conditions,WindDirDegrees,DateUTC
12:56 AM,55.9,52.0,87,30.04,7.0,WNW,17.3,-,N/A,,Partly Cloudy,290,2012-11-07 08:56:00
1:42 AM,55.4,53.6,94,30.04,6.0,WNW,18.4,-,N/A,,Mostly Cloudy,290,2012-11-07 09:42:00
1:56 AM,55.9,52.0,87,30.04,6.0,WNW,17.3,-,N/A,,Mostly Cloudy,300,2012-11-07 09:56:00
2:56 AM,55.9,52.0,87,30.04,6.0,WNW,15.0,-,N/A,,Mostly Cloudy,290,2012-11-07 10:56:00
3:56 AM,55.9,52.0,87,30.04,6.0,WNW,13.8,-,N/A,,Mostly Cloudy,290,2012-11-07 11:56:00
4:56 AM,55.9,53.1,90,30.05,6.0,WNW,9.2,-,N/A,,Mostly Cloudy,290,2012-11-07 12:56:00
5:56 AM,55.0,52.0,89,30.05,6.0,WNW,8.1,-,N/A,,Overcast,290,2012-11-07 13:56:00
6:56 AM,55.0,52.0,89,30.05,6.0,South,3.5,-,N/A,,Mostly Cloudy,190,2012-11-07 14:56:00
7:44 AM,53.6,51.8,94,30.07,1.2,South,4.6,-,N/A,,Mostly Cloudy,180,2012-11-07 15:44:00
7:54 AM,53.6,51.8,94,30.07,1.0,South,3.5,-,N/A,,Mostly Cloudy,190,2012-11-07 15:54:00
7:56 AM,53.1,52.0,96,30.07,1.0,South,3.5,-,N/A,,Mostly Cloudy,190,2012-11-07 15:56:00
8:22 AM,53.6,50.0,88,30.07,3.0,South,3.5,-,N/A,,Mostly Cloudy,180,2012-11-07 16:22:00
8:56 AM,55.9,51.1,84,30.07,4.0,South,5.8,-,N/A,,Haze,180,2012-11-07 16:56:00
9:56 AM,57.0,52.0,83,30.06,7.0,SW,3.5,-,N/A,,Overcast,220,2012-11-07 17:56:00
10:56 AM,60.1,53.1,78,30.04,9.0,NW,5.8,-,N/A,,Scattered Clouds,320,2012-11-07 18:56:00
11:56 AM,61.0,53.1,75,30.02,10.0,NW,11.5,-,N/A,,Partly Cloudy,310,2012-11-07 19:56:00
12:56 PM,63.0,53.1,70,29.99,10.0,WNW,12.7,-,N/A,,Partly Cloudy,300,2012-11-07 20:56:00
1:56 PM,63.0,53.1,70,29.98,10.0,WNW,12.7,-,N/A,,Clear,300,2012-11-07 21:56:00
2:56 PM,62.1,53.1,72,29.98,10.0,WNW,18.4,-,N/A,,Partly Cloudy,290,2012-11-07 22:56:00
3:48 PM,59.0,53.6,82,29.99,9.0,West,9.2,18.4,N/A,,Mostly Cloudy,270,2012-11-07 23:48:00
3:56 PM,59.0,52.0,78,29.99,10.0,WSW,15.0,-,N/A,,Mostly Cloudy,240,2012-11-07 23:56:00
4:56 PM,59.0,52.0,78,29.98,10.0,West,16.1,21.9,N/A,,Overcast,270,2012-11-08 00:56:00
5:56 PM,57.9,51.1,78,29.98,10.0,WSW,10.4,-,N/A,,Mostly Cloudy,250,2012-11-08 01:56:00
6:38 PM,57.2,50.0,77,29.98,10.0,WSW,10.4,-,N/A,,Mostly Cloudy,240,2012-11-08 02:38:00
6:56 PM,57.9,48.9,72,29.98,10.0,WSW,9.2,18.4,N/A,,Mostly Cloudy,250,2012-11-08 02:56:00
7:56 PM,57.0,48.0,72,29.98,10.0,WSW,10.4,-,N/A,,Overcast,240,2012-11-08 03:56:00
8:56 PM,57.0,48.0,72,29.98,10.0,WSW,13.8,-,N/A,,Mostly Cloudy,250,2012-11-08 04:56:00
9:56 PM,57.0,48.0,72,29.98,10.0,West,15.0,-,N/A,,Overcast,260,2012-11-08 05:56:00
10:56 PM,57.2,48.2,72,29.97,10.0,West,17.3,27.6,N/A,,Overcast,270,2012-11-08 06:56:00
11:56 PM,55.9,46.9,72,29.96,10.0,WSW,15.0,-,N/A,,Mostly Cloudy,250,2012-11-08 07:56:00